地図

経路データ

SID SEASON NUMBER BASIN SUBBASIN NAME ISO_TIME NATURE LAT LON WMO_WIND WMO_PRES WMO_AGENCY TRACK_TYPE DIST2LAND LANDFALL IFLAG USA_AGENCY USA_ATCF_ID USA_LAT USA_LON USA_RECORD USA_STATUS USA_WIND USA_PRES USA_SSHS USA_R34_NE USA_R34_SE USA_R34_SW USA_R34_NW USA_R50_NE USA_R50_SE USA_R50_SW USA_R50_NW USA_R64_NE USA_R64_SE USA_R64_SW USA_R64_NW USA_POCI USA_ROCI USA_RMW USA_EYE TOKYO_LAT TOKYO_LON TOKYO_GRADE TOKYO_WIND TOKYO_PRES TOKYO_R50_DIR TOKYO_R50_LONG TOKYO_R50_SHORT TOKYO_R30_DIR TOKYO_R30_LONG TOKYO_R30_SHORT TOKYO_LAND CMA_LAT CMA_LON CMA_CAT CMA_WIND CMA_PRES HKO_LAT HKO_LON HKO_CAT HKO_WIND HKO_PRES NEWDELHI_LAT NEWDELHI_LON NEWDELHI_GRADE NEWDELHI_WIND NEWDELHI_PRES NEWDELHI_CI NEWDELHI_DP NEWDELHI_POCI REUNION_LAT REUNION_LON REUNION_TYPE REUNION_WIND REUNION_PRES REUNION_TNUM REUNION_CI REUNION_RMW REUNION_R34_NE REUNION_R34_SE REUNION_R34_SW REUNION_R34_NW REUNION_R50_NE REUNION_R50_SE REUNION_R50_SW REUNION_R50_NW REUNION_R64_NE REUNION_R64_SE REUNION_R64_SW REUNION_R64_NW BOM_LAT BOM_LON BOM_TYPE BOM_WIND BOM_PRES BOM_TNUM BOM_CI BOM_RMW BOM_R34_NE BOM_R34_SE BOM_R34_SW BOM_R34_NW BOM_R50_NE BOM_R50_SE BOM_R50_SW BOM_R50_NW BOM_R64_NE BOM_R64_SE BOM_R64_SW BOM_R64_NW BOM_ROCI BOM_POCI BOM_EYE BOM_POS_METHOD BOM_PRES_METHOD NADI_LAT NADI_LON NADI_CAT NADI_WIND NADI_PRES WELLINGTON_LAT WELLINGTON_LON WELLINGTON_WIND WELLINGTON_PRES DS824_LAT DS824_LON DS824_STAGE DS824_WIND DS824_PRES TD9636_LAT TD9636_LON TD9636_STAGE TD9636_WIND TD9636_PRES TD9635_LAT TD9635_LON TD9635_WIND TD9635_PRES TD9635_ROCI NEUMANN_LAT NEUMANN_LON NEUMANN_CLASS NEUMANN_WIND NEUMANN_PRES MLC_LAT MLC_LON MLC_CLASS MLC_WIND MLC_PRES USA_GUST BOM_GUST BOM_GUST_PER REUNION_GUST REUNION_GUST_PER USA_SEAHGT USA_SEARAD_NE USA_SEARAD_SE USA_SEARAD_SW USA_SEARAD_NW STORM_SPEED STORM_DIR
1964325S13176 1965 112 SP MM NOT_NAMED 1964-11-20 00:00:00 TS -12.5000 176.400 main 521 512 O________OO_O_ jtwc_sh SH031965 -12.5000 176.400 -1 -12.5000 176.400 TC 65 -12.5000 176.400 4 -12.5000 176.400 TC 25 5 88
1964325S13176 1965 112 SP MM NOT_NAMED 1964-11-20 03:00:00 TS -12.4928 176.651 main 508 500 P________PP_P_ SH031965 -12.4825 176.650 -1 -12.4825 176.650 TC 65 -12.5237 176.655 4 -12.4825 176.650 TC 27 5 92
1964325S13176 1965 112 SP MM NOT_NAMED 1964-11-20 06:00:00 TS -12.5144 176.902 main 500 482 O________OP_O_ jtwc_sh SH031965 -12.5000 176.900 -1 -12.5000 176.900 TC 65 -12.5578 176.908 4 -12.5000 176.900 TC 30 5 101
1964325S13176 1965 112 SP MM NOT_NAMED 1964-11-20 09:00:00 TS -12.5864 177.152 main 477 458 P________PP_P_ SH031965 -12.5775 177.150 -1 -12.5775 177.150 TC 65 -12.6130 177.157 4 -12.5775 177.150 TC 30 5 111
1964325S13176 1965 112 SP MM NOT_NAMED 1964-11-20 12:00:00 TS -12.7000 177.400 main 458 440 O________OO_O_ jtwc_sh SH031965 -12.7000 177.400 -1 -12.7000 177.400 TC 65 -12.7000 177.400 4 -12.7000 177.400 TC 30 5 117
1964325S13176 1965 112 SP MM NOT_NAMED 1964-11-20 15:00:00 TS -12.8381 177.647 main 440 407 P________PP_P_ SH031965 -12.8425 177.650 -1 -12.8425 177.650 TC 65 -12.8252 177.638 4 -12.8425 177.650 TC 32 6 121
1964325S13176 1965 112 SP MM NOT_NAMED 1964-11-20 18:00:00 TS -12.9943 177.894 main 407 388 O________OP_O_ jtwc_sh SH031965 -13.0000 177.900 -1 -13.0000 177.900 TC 65 -12.9773 177.877 4 -13.0000 177.900 TC 35 6 124
1964325S13176 1965 112 SP MM NOT_NAMED 1964-11-20 21:00:00 TS -13.1533 178.133 main 378 356 P________PP_P_ SH031965 -13.1574 178.135 -1 -13.1574 178.135 TC 65 -13.1408 178.128 4 -13.1574 178.135 TC 37 6 122
1964325S13176 1965 112 SP MM NOT_NAMED 1964-11-21 00:00:00 TS -13.3000 178.400 main 356 335 O________OO_O_ jtwc_sh SH031965 -13.3000 178.400 -1 -13.3000 178.400 TC 65 -13.3000 178.400 4 -13.3000 178.400 TC 40 6 113
1964325S13176 1965 112 SP MM NOT_NAMED 1964-11-21 03:00:00 TS -13.4020 178.741 main 335 311 P________PP_P_ SH031965 -13.4000 178.743 -1 -13.4000 178.743 TC 65 -13.4081 178.736 4 -13.4000 178.743 TC 42 7 107
1964325S13176 1965 112 SP MM NOT_NAMED 1964-11-21 06:00:00 TS -13.5032 179.097 main 311 294 O________OP_O_ jtwc_sh SH031965 -13.5000 179.100 -1 -13.5000 179.100 TC 65 -13.5129 179.088 4 -13.5000 179.100 TC 45 7 109
1964325S13176 1965 112 SP MM NOT_NAMED 1964-11-21 09:00:00 TS -13.6334 179.428 main 294 268 P________PP_P_ SH031965 -13.6350 179.430 -1 -13.6350 179.430 TC 65 -13.6362 179.420 4 -13.6275 179.430 TC 45 7 117
1964325S13176 1965 112 SP MM NOT_NAMED 1964-11-21 12:00:00 TS -13.8000 179.700 main 268 246 O________OO_O_ jtwc_sh SH031965 -13.8000 179.700 -1 -13.8000 179.700 TC 65 -13.8000 179.700 4 -13.8000 179.700 TC 45 6 129
1964325S13176 1965 112 SP MM NOT_NAMED 1964-11-21 15:00:00 TS -13.9916 179.882 main 246 224 P________PP_P_ SH031965 -13.9699 179.880 -1 -13.9699 179.880 TC 65 -13.9992 179.887 4 -14.0274 179.880 TC 47 5 146
1964325S13176 1965 112 SP MM NOT_NAMED 1964-11-21 18:00:00 TS -14.2362 180.004 main 224 191 O________OP_O_ jtwc_sh SH031965 -14.2000 180.000 -1 -14.2000 180.000 TC 65 -14.2447 -179.982 4 -14.3000 180.000 TC 50 6 158
1964325S13176 1965 112 SP MM NOT_NAMED 1964-11-21 21:00:00 TS -14.5289 180.109 main 191 149 P________PP_P_ SH031965 -14.5050 -179.892 -1 -14.5050 -179.892 TC 65 -14.5430 -179.885 4 -14.5625 -179.892 TC 50 7 164
1964325S13176 1965 112 SP MM NOT_NAMED 1964-11-22 00:00:00 TS -14.9000 180.200 main 149 109 O________OO_O_ jtwc_sh SH031965 -14.9000 -179.800 -1 -14.9000 180.200 TC 65 -14.9000 -179.800 4 -14.9000 -179.800 TC 50 9 168
1964325S13176 1965 112 SP MM NOT_NAMED 1964-11-22 03:00:00 TS -15.3733 180.295 main 99 63 P________PP_P_ SH031965 -15.3850 -179.700 -1 -15.3850 -179.700 TC 65 -15.3458 -179.721 4 -15.3775 -179.700 TC 52 10 169
1964325S13176 1965 112 SP MM NOT_NAMED 1964-11-22 06:00:00 TS -15.8856 180.389 main 63 53 O________OP_O_ jtwc_sh SH031965 -15.9000 -179.600 -1 -15.9000 180.400 TC 65 -15.8422 -179.644 4 -15.9000 -179.600 TC 55 10 170
1964325S13176 1965 112 SP MM NOT_NAMED 1964-11-22 09:00:00 TS -16.3687 180.476 main 67 67 P________PP_P_ SH031965 -16.3800 -179.515 -1 -16.3800 -179.515 TC 65 -16.3426 -179.546 4 -16.3724 -179.522 TC 57 9 168
1964325S13176 1965 112 SP MM NOT_NAMED 1964-11-22 12:00:00 TS -16.8000 180.600 main 74 74 O________OO_O_ jtwc_sh SH031965 -16.8000 -179.400 -1 -16.8000 180.600 TC 65 -16.8000 -179.400 4 -16.8000 -179.400 TC 60 8 159
1964325S13176 1965 112 SP MM NOT_NAMED 1964-11-22 15:00:00 TS -17.1417 180.783 main 101 101 P________PP_P_ SH031965 -17.1224 -179.237 -1 -17.1224 -179.237 TC 65 -17.1419 -179.211 4 -17.1800 -179.180 TC 60 8 147
1964325S13176 1965 112 SP MM NOT_NAMED 1964-11-22 18:00:00 TS -17.4342 181.033 main 134 134 O________OP_O_ jtwc_sh SH031965 -17.4000 -179.000 -1 -17.4000 181.000 TC 65 -17.4369 -178.969 4 -17.5000 -178.900 TC 60 8 138
1964325S13176 1965 112 SP MM NOT_NAMED 1964-11-22 21:00:00 TS -17.7120 181.327 main 179 179 P________PP_P_ SH031965 -17.6924 -178.695 -1 -17.6924 -178.695 TC 65 -17.7135 -178.667 4 -17.7498 -178.637 TC 62 9 132
1964325S13176 1965 112 SP MM NOT_NAMED 1964-11-23 00:00:00 TS -18.0000 181.700 main 233 233 O________OO_O_ jtwc_sh SH031965 -18.0000 -178.300 -1 -18.0000 181.700 TC 65 -18.0000 -178.300 4 -18.0000 -178.300 TC 65 10 128
1964325S13176 1965 112 SP MM NOT_NAMED 1964-11-23 03:00:00 TS -18.3391 182.173 main 296 296 P________PP_P_ SH031965 -18.3425 -177.822 -1 -18.3425 -177.822 TC 65 -18.3364 -177.833 4 -18.3351 -177.830 TC 67 12 126
1964325S13176 1965 112 SP MM NOT_NAMED 1964-11-23 06:00:00 TS -18.6966 182.698 main 364 364 O________OP_O_ jtwc_sh SH031965 -18.7000 -177.300 -1 -18.7000 182.700 TC 65 -18.6862 -177.308 4 -18.7000 -177.300 TC 70 12 126
1964325S13176 1965 112 SP MM NOT_NAMED 1964-11-23 09:00:00 TS -19.0500 183.216 main 433 433 P________PP_P_ SH031965 -19.0500 -176.785 -1 -19.0500 -176.785 TC 65 -19.0427 -176.780 4 -19.0575 -176.785 TC 70 12 127
1964325S13176 1965 112 SP MM NOT_NAMED 1964-11-23 12:00:00 TS -19.4000 183.700 main 495 495 O________OO_O_ jtwc_sh SH031965 -19.4000 -176.300 -1 -19.4000 183.700 TC 65 -19.4000 -176.300 4 -19.4000 -176.300 TC 70 11 128
1964325S13176 1965 112 SP MM NOT_NAMED 1964-11-23 15:00:00 TS -19.7416 184.138 main 549 549 P________PP_P_ SH031965 -19.7500 -175.855 -1 -19.7500 -175.855 TC 65 -19.7740 -175.882 4 -19.6925 -175.855 TC 72 10 133
1964325S13176 1965 112 SP MM NOT_NAMED 1964-11-23 18:00:00 TS -20.0862 184.493 main 609 609 O________OP_O_ jtwc_sh SH031965 -20.1000 -175.500 -1 -20.1000 184.500 TC 65 -20.1446 -175.528 4 -20.0000 -175.500 TC 75 9 141
1964325S13176 1965 112 SP MM NOT_NAMED 1964-11-23 21:00:00 TS -20.4557 184.761 main 661 661 P________PP_P_ SH031965 -20.4574 -175.232 -1 -20.4574 -175.232 TC 65 -20.4929 -175.260 4 -20.4149 -175.233 TC 77 8 152
1964325S13176 1965 112 SP MM NOT_NAMED 1964-11-24 00:00:00 TS -20.8000 184.900 main 690 690 O________OO_O_ jtwc_sh SH031965 -20.8000 -175.100 -1 -20.8000 184.900 TC 65 -20.8000 -175.100 4 -20.8000 -175.100 TC 80 7 169
1964325S13176 1965 112 SP MM NOT_NAMED 1964-11-24 03:00:00 TS -21.1022 184.904 main 712 712 P________PP_P_ SH031965 -21.1375 -175.105 -1 -21.1375 -175.105 TC 65 -21.1038 -175.070 4 -21.0300 -175.105 TC 77 5 189
1964325S13176 1965 112 SP MM NOT_NAMED 1964-11-24 06:00:00 TS -21.3393 184.814 main 720 720 O________OP_O_ jtwc_sh SH031965 -21.4000 -175.200 -1 -21.4000 184.800 TC 65 -21.3572 -175.143 4 -21.2000 -175.200 TC 75 5 203
1964325S13176 1965 112 SP MM NOT_NAMED 1964-11-24 09:00:00 TS -21.5299 184.715 main 728 728 P________PP_P_ SH031965 -21.5675 -175.292 -1 -21.5675 -175.292 TC 65 -21.5321 -175.270 4 -21.4525 -175.285 TC 75 3 217
1964325S13176 1965 112 SP MM NOT_NAMED 1964-11-24 12:00:00 TS -21.6000 184.600 main 729 713 O________OO_O_ jtwc_sh SH031965 -21.6000 -175.400 -1 -21.6000 184.600 TC 65 -21.6000 -175.400 4 -21.6000 -175.400 TC 75 2 277
1964325S13176 1965 112 SP MM NOT_NAMED 1964-11-24 15:00:00 TS -21.5009 184.452 main 713 683 P________PP_P_ SH031965 -21.4950 -175.515 -1 -21.4950 -175.515 TC 65 -21.5033 -175.588 4 -21.5100 -175.573 TC 75 4 321
1964325S13176 1965 112 SP MM NOT_NAMED 1964-11-24 18:00:00 TS -21.3020 184.338 main 683 667 O________OP_O_ jtwc_sh SH031965 -21.3000 -175.600 -1 -21.3000 184.400 TC 65 -21.3080 -175.748 4 -21.3000 -175.700 TC 75 5 336
1964325S13176 1965 112 SP MM NOT_NAMED 1964-11-24 21:00:00 TS -21.0787 184.255 main 667 651 P________PP_P_ SH031965 -21.0771 -175.705 -1 -21.0771 -175.705 TC 65 -21.0836 -175.784 4 -21.0769 -175.785 TC 72 4 7
1964325S13176 1965 112 SP MM NOT_NAMED 1964-11-25 00:00:00 TS -20.9000 184.400 main 659 659 O________OO_O_ jtwc_sh SH031965 -20.9000 -175.600 -1 -20.9000 184.400 TC 65 -20.9000 -175.600 4 -20.9000 -175.600 TC 70 7 71
1964325S13176 1965 112 SP MM NOT_NAMED 1964-11-25 03:00:00 TS -20.8656 184.930 main 697 697 P________PP_P_ SH031965 -20.8698 -175.135 -1 -20.8698 -175.135 TC 65 -20.8522 -175.056 4 -20.8706 -174.955 TC 70 12 89
1964325S13176 1965 112 SP MM NOT_NAMED 1964-11-25 06:00:00 TS -20.8878 185.701 main 763 763 O________OP_O_ jtwc_sh SH031965 -20.9000 -174.400 -1 -20.9000 185.600 TC 65 -20.8512 -174.295 4 -20.9000 -174.100 TC 70 15 91
1964325S13176 1965 112 SP MM NOT_NAMED 1964-11-25 09:00:00 TS -20.8940 186.563 main 799 794 P________PP_P_ SH031965 -20.9009 -173.493 -1 -20.9009 -173.493 TC 65 -20.8742 -173.437 4 -20.8999 -173.328 TC 67 16 90
1964325S13176 1965 112 SP MM NOT_NAMED 1964-11-25 12:00:00 TS -20.9000 187.400 main 794 794 O________OO_O_ jtwc_sh SH031965 -20.9000 -172.600 -1 -20.9000 187.400 TC 65 -20.9000 -172.600 4 -20.9000 -172.600 TC 65 13 90
1964325S13176 1965 112 SP MM NOT_NAMED 1964-11-25 15:00:00 TS -20.8934 187.991 main 794 794 P________PP_P_ SH031965 -20.8991 -172.013 -1 -20.8991 -172.013 TC 65 -20.8759 -172.033 4 -20.8995 -171.978 TC 62 11 89
1964325S13176 1965 112 SP MM NOT_NAMED 1964-11-25 18:00:00 TS -20.8892 188.526 main 797 797 O________OP_O_ jtwc_sh SH031965 -20.9000 -171.500 -1 -20.9000 188.500 TC 65 -20.8569 -171.496 4 -20.9000 -171.400 TC 60 10 89
1964325S13176 1965 112 SP MM NOT_NAMED 1964-11-25 21:00:00 TS -20.8816 189.091 main 806 806 P________PP_P_ SH031965 -20.8916 -170.925 -1 -20.8916 -170.925 TC 65 -20.8597 -170.911 4 -20.8838 -170.875 TC 57 12 91
1964325S13176 1965 112 SP MM NOT_NAMED 1964-11-26 00:00:00 TS -20.9000 189.800 main 822 822 O________OO_O_ jtwc_sh SH031965 -20.9000 -170.200 -1 -20.9000 189.800 TC 65 -20.9000 -170.200 4 -20.9000 -170.200 TC 55 16 92
1964325S13176 1965 112 SP MM NOT_NAMED 1964-11-26 03:00:00 TS -20.9446 190.796 main 855 855 P________PP_P_ SH031965 -20.9202 -169.217 -1 -20.9202 -169.217 TC 65 -20.9601 -169.212 4 -20.9782 -169.167 TC 50 20 94
1964325S13176 1965 112 SP MM NOT_NAMED 1964-11-26 06:00:00 TS -21.0394 191.925 main 915 915 O________OP_O_ jtwc_sh SH031965 -21.0000 -168.100 -1 -21.0000 191.900 TC 65 -21.0575 -168.102 4 -21.1000 -168.000 TC 45 21 97
1964325S13176 1965 112 SP MM NOT_NAMED 1964-11-26 09:00:00 TS -21.1920 193.047 main 994 994 P________PP_P_ SH031965 -21.1701 -166.970 -1 -21.1701 -166.970 TC 65 -21.2006 -166.965 4 -21.2273 -166.905 TC 42 21 100
1964325S13176 1965 112 SP MM NOT_NAMED 1964-11-26 12:00:00 TS -21.4000 194.100 main 1080 1080 O________OO_O_ jtwc_sh SH031965 -21.4000 -165.900 -1 -21.4000 194.100 TC 65 -21.4000 -165.900 4 -21.4000 -165.900 TC 40 19 104
1964325S13176 1965 112 SP MM NOT_NAMED 1964-11-26 15:00:00 TS -21.6285 194.997 main 1158 1158 P________PP_P_ SH031965 -21.6193 -164.990 -1 -21.6193 -164.990 TC 65 -21.6637 -164.980 4 -21.6116 -165.055 TC 37 16 108
1964325S13176 1965 112 SP MM NOT_NAMED 1964-11-26 18:00:00 TS -21.9200 195.779 main 1239 1239 O________OP_O_ jtwc_sh SH031965 -21.9000 -164.200 -1 -21.9000 195.800 TC 65 -21.9801 -164.186 4 -21.9000 -164.300 TC 35 15 115
1964325S13176 1965 112 SP MM NOT_NAMED 1964-11-26 21:00:00 TS -22.2885 196.501 main 1322 1322 P________PP_P_ SH031965 -22.2732 -163.483 -1 -22.2732 -163.483 TC 65 -22.3318 -163.473 4 -22.2759 -163.554 TC 32 15 121
1964325S13176 1965 112 SP MM NOT_NAMED 1964-11-27 00:00:00 TS -22.7000 197.200 main 1405 O________OO_O_ jtwc_sh SH031965 -22.7000 -162.800 -1 -22.7000 197.200 TC 65 -22.7000 -162.800 4 -22.7000 -162.800 TC 30 15 123

デジタル台風データ・検索

IBTrACS Databaseについて

本データベースは、米国NOAAが公開する1842年以降の世界の熱帯低気圧のベストトラックデータアーカイブInternational Best Track Archive for Climate Stewardship (IBTrACS)を、ウェブで閲覧しやすい形式に変換したものです。

最終更新日:2021-10-08